Time;durP1;ratioP1;P1;durP2;ratioP2;P2;SDS_P1;SDS_P2;PMS_P1;PMS_P2;Temp;Humidity;BMP_temperature;BMP_pressure;BME280_temperature;BME280_humidity;BME280_pressure;Samples;Min_cycle;Max_cycle;Signal;HPM_P1;HPM_P2
2023/07/05 00:00:19;;;;;;;1.95;1.20;;;18.70;74.10;;;17.85;95.51;95706.56;5030194;28;20029;-68
2023/07/05 00:02:48;;;;;;;2.22;1.15;;;18.60;73.90;;;17.85;93.75;95703.88;4995511;28;20033;-70
2023/07/05 00:05:14;;;;;;;4.40;1.60;;;18.60;72.80;;;17.83;92.63;95703.31;5015327;28;20535;-66
2023/07/05 00:07:40;;;;;;;3.88;1.30;;;18.60;72.60;;;17.83;93.26;95698.00;5028690;28;20262;-67
2023/07/05 00:10:07;;;;;;;3.00;1.38;;;18.60;71.90;;;17.79;92.03;95686.25;5012065;28;20029;-68
2023/07/05 00:12:32;;;;;;;4.45;1.55;;;18.60;72.10;;;17.75;92.77;95692.06;5027811;28;20029;-68
2023/07/05 00:14:58;;;;;;;2.25;1.33;;;18.60;72.50;;;17.72;92.82;95686.44;5012482;28;20034;-67
2023/07/05 00:17:24;;;;;;;3.35;1.48;;;18.60;72.50;;;17.70;93.85;95699.16;4994921;28;20053;-67
2023/07/05 00:19:53;;;;;;;4.60;1.45;;;18.60;73.10;;;17.68;93.82;95694.09;5029701;28;20029;-67
2023/07/05 00:22:19;;;;;;;2.50;1.20;;;18.60;72.50;;;17.65;93.41;95697.22;5012218;28;20022;-67
2023/07/05 00:24:44;;;;;;;2.92;1.50;;;18.60;72.50;;;17.62;93.16;95692.34;4979025;28;20045;-67
2023/07/05 00:27:10;;;;;;;2.65;1.38;;;18.60;72.60;;;17.62;93.13;95689.69;4995794;28;20045;-67
2023/07/05 00:29:36;;;;;;;2.00;1.25;;;18.50;72.90;;;17.59;93.77;95692.84;4994867;28;24483;-67
2023/07/05 00:32:01;;;;;;;2.28;1.50;;;18.50;72.70;;;17.55;93.40;95686.41;5029790;28;20132;-68
2023/07/05 00:34:27;;;;;;;2.35;1.58;;;18.50;73.40;;;17.55;94.14;95691.72;5011859;28;20404;-66
2023/07/05 00:36:53;;;;;;;1.90;1.40;;;18.40;73.30;;;17.53;93.48;95683.19;5029350;28;20440;-67
2023/07/05 00:39:20;;;;;;;1.67;1.27;;;18.30;72.70;;;17.52;94.51;95692.19;4995304;28;20033;-65
2023/07/05 00:41:45;;;;;;;2.30;1.40;;;18.30;73.50;;;17.50;95.74;95694.31;4995259;28;20072;-66
2023/07/05 00:44:12;;;;;;;4.70;1.63;;;18.30;74.50;;;17.47;97.05;95694.00;5011843;28;20370;-66
2023/07/05 00:46:46;;;;;;;3.20;1.65;;;18.20;75.20;;;17.39;98.43;95681.88;4995195;28;20037;-67
2023/07/05 00:49:18;;;;;;;2.20;1.27;;;18.20;75.00;;;17.35;99.53;95686.06;4976389;28;20037;-68
2023/07/05 00:52:00;;;;;;;3.30;1.48;;;18.20;75.50;;;17.34;100.00;95684.47;4999372;28;20037;-67
2023/07/05 00:54:35;;;;;;;2.03;1.30;;;18.20;75.20;;;17.28;98.12;95680.13;5016386;28;20034;-66
2023/07/05 00:57:15;;;;;;;3.47;1.65;;;18.10;74.30;;;17.29;100.00;95692.38;4998603;28;20034;-67
2023/07/05 00:59:55;;;;;;;1.92;1.60;;;18.10;75.50;;;17.24;100.00;95681.66;5015321;28;20397;-66
2023/07/05 01:02:21;;;;;;;2.60;1.25;;;18.10;75.90;;;17.20;99.89;95685.81;5013360;28;20129;-66
2023/07/05 01:04:47;;;;;;;2.95;1.63;;;18.00;76.30;;;17.13;100.00;95686.78;4998841;28;20856;-66
2023/07/05 01:07:13;;;;;;;3.30;1.60;;;18.00;76.30;;;17.14;100.00;95701.69;4999001;28;20100;-66
2023/07/05 01:09:38;;;;;;;3.70;1.60;;;18.00;76.70;;;17.10;100.00;95697.91;5014701;28;20049;-66
2023/07/05 01:12:10;;;;;;;2.45;1.38;;;17.90;77.00;;;17.06;100.00;95695.97;4999130;28;20452;-66
2023/07/05 01:14:52;;;;;;;1.80;1.40;;;17.90;77.10;;;17.00;100.00;95704.88;5032869;28;20033;-66
2023/07/05 01:17:42;;;;;;;7.10;1.50;;;17.90;77.20;;;17.00;100.00;95732.28;5006935;28;20082;-65
2023/07/05 01:20:16;;;;;;;3.42;1.40;;;17.90;77.40;;;16.95;100.00;95785.28;5015457;28;20033;-67
2023/07/05 01:23:04;;;;;;;2.72;1.70;;;17.70;78.10;;;16.89;100.00;95780.94;5032454;28;20060;-66
2023/07/05 01:26:15;;;;;;;2.83;1.33;;;17.60;78.40;;;16.84;100.00;95767.56;5032105;28;20487;-66
2023/07/05 01:28:54;;;;;;;4.65;1.73;;;17.70;77.70;;;16.84;100.00;95772.88;5016948;28;20413;-66
2023/07/05 01:31:54;;;;;;;2.33;1.55;;;17.70;77.80;;;16.82;100.00;95756.34;5032557;28;20072;-66
2023/07/05 01:34:31;;;;;;;2.65;1.67;;;17.70;76.80;;;16.78;100.00;95741.94;5017723;28;20033;-67
2023/07/05 01:36:57;;;;;;;2.58;1.77;;;17.60;77.80;;;16.74;100.00;95738.13;5015624;28;20034;-67
2023/07/05 01:39:23;;;;;;;3.00;2.00;;;17.70;77.90;;;16.78;100.00;95739.28;4994856;28;20029;-67
2023/07/05 01:41:48;;;;;;;4.93;2.15;;;17.70;77.80;;;16.79;100.00;95740.91;5011528;28;20034;-67
2023/07/05 01:44:14;;;;;;;3.40;2.25;;;17.70;77.80;;;16.77;100.00;95727.06;4998292;28;20623;-67
2023/07/05 01:47:06;;;;;;;2.65;1.83;;;17.70;78.50;;;16.74;100.00;95730.16;4981642;28;20035;-68
2023/07/05 01:50:25;;;;;;;2.63;2.08;;;17.60;78.50;;;16.70;100.00;95716.53;5001252;28;20075;-67
2023/07/05 01:53:07;;;;;;;4.15;2.10;;;17.60;78.50;;;16.65;100.00;95707.66;5016847;28;20096;-67
2023/07/05 01:56:01;;;;;;;3.33;1.77;;;17.60;78.70;;;16.63;100.00;95705.22;5014874;28;20409;-67
2023/07/05 01:58:32;;;;;;;4.85;1.85;;;17.60;78.70;;;16.63;100.00;95701.78;5010287;28;20079;-67
2023/07/05 02:00:58;;;;;;;3.65;1.80;;;17.60;77.70;;;16.64;100.00;95703.38;4995917;28;20033;-67
2023/07/05 02:03:24;;;;;;;4.03;2.10;;;17.60;77.10;;;16.63;100.00;95704.44;5013952;28;20452;-67
2023/07/05 02:05:49;;;;;;;5.15;1.80;;;17.60;77.00;;;16.63;100.00;95702.56;4998061;28;20036;-67
2023/07/05 02:08:15;;;;;;;3.40;1.75;;;17.60;76.60;;;16.60;100.00;95705.72;5014097;28;20525;-67
2023/07/05 02:10:41;;;;;;;4.85;2.30;;;17.60;76.70;;;16.60;100.00;95699.59;4992842;28;20114;-67
2023/07/05 02:13:08;;;;;;;6.57;2.05;;;17.50;77.00;;;16.56;100.00;95695.81;5021583;28;20479;-68
2023/07/05 02:15:35;;;;;;;3.33;2.03;;;17.50;76.70;;;16.54;100.00;95693.38;4997618;28;20040;-67
2023/07/05 02:18:01;;;;;;;4.05;1.92;;;17.50;76.70;;;16.49;100.00;95682.63;5013892;28;20416;-67
2023/07/05 02:20:27;;;;;;;4.00;2.05;;;17.40;76.90;;;16.49;100.00;95682.63;5014306;28;20041;-67
2023/07/05 02:22:55;;;;;;;4.45;1.90;;;17.50;76.90;;;16.47;100.00;95674.91;4980151;28;20543;-67
2023/07/05 02:25:21;;;;;;;5.18;1.73;;;17.40;77.10;;;16.45;100.00;95669.03;5013725;28;20122;-67
2023/07/05 02:27:46;;;;;;;2.30;1.58;;;17.40;77.00;;;16.44;100.00;95663.97;5013661;28;20436;-67
2023/07/05 02:30:13;;;;;;;3.97;2.00;;;17.40;77.10;;;16.41;100.00;95659.94;5013991;28;20119;-69
2023/07/05 02:32:39;;;;;;;4.15;1.90;;;17.40;77.20;;;16.36;100.00;95640.47;5031282;28;20812;-67
2023/07/05 02:35:05;;;;;;;2.40;1.92;;;17.30;77.50;;;16.34;100.00;95643.34;5012484;28;20044;-67
2023/07/05 02:37:32;;;;;;;4.97;1.90;;;17.20;77.60;;;16.31;100.00;95635.88;5009947;28;20037;-67
2023/07/05 02:39:58;;;;;;;3.78;1.88;;;17.20;77.50;;;16.31;100.00;95645.69;5013715;28;20117;-70
2023/07/05 02:42:24;;;;;;;2.95;1.90;;;17.20;76.90;;;16.26;100.00;95641.03;4997313;28;20726;-67
2023/07/05 02:44:51;;;;;;;3.13;1.80;;;17.20;77.20;;;16.25;100.00;95655.34;5031232;28;20038;-68
2023/07/05 02:47:18;;;;;;;5.72;2.30;;;17.20;77.10;;;16.25;100.00;95655.34;4996483;28;20037;-70
2023/07/05 02:49:44;;;;;;;5.00;1.83;;;17.20;77.40;;;16.25;100.00;95650.06;5013522;28;20052;-68
2023/07/05 02:52:10;;;;;;;3.42;1.90;;;17.10;77.60;;;16.22;100.00;95650.53;5010241;28;20034;-65
2023/07/05 02:54:36;;;;;;;3.90;2.35;;;17.10;77.60;;;16.17;100.00;95648.59;4994941;28;20045;-68
2023/07/05 02:57:02;;;;;;;7.32;1.98;;;17.10;77.30;;;16.16;100.00;95646.16;5011060;28;20095;-66
2023/07/05 02:59:28;;;;;;;4.72;2.03;;;17.20;77.60;;;16.17;100.00;95653.09;5010849;28;20037;-67
2023/07/05 03:01:54;;;;;;;3.67;1.90;;;17.10;77.60;;;16.16;100.00;95648.81;4997530;28;20057;-67
2023/07/05 03:04:20;;;;;;;3.70;2.17;;;17.10;77.50;;;16.18;100.00;95654.69;5008978;28;20061;-68
2023/07/05 03:06:45;;;;;;;5.50;2.13;;;17.10;77.90;;;16.18;100.00;95654.69;5010701;28;20037;-67
2023/07/05 03:09:11;;;;;;;3.90;2.00;;;17.10;77.90;;;16.16;100.00;95646.16;5028663;28;20738;-67
2023/07/05 03:11:37;;;;;;;4.40;2.05;;;17.10;78.20;;;16.12;100.00;95645.84;4993944;28;20041;-67
2023/07/05 03:14:03;;;;;;;4.47;2.10;;;17.10;78.40;;;16.13;100.00;95638.69;5009985;28;20061;-67
2023/07/05 03:16:29;;;;;;;2.70;2.00;;;17.10;78.30;;;16.12;100.00;95642.38;5028661;28;20065;-67
2023/07/05 03:18:54;;;;;;;2.50;1.90;;;17.10;78.10;;;16.10;100.00;95645.25;4994450;28;20041;-67
2023/07/05 03:21:20;;;;;;;5.90;3.50;;;17.10;77.80;;;16.11;100.00;95638.91;5010407;28;20040;-67
2023/07/05 03:23:46;;;;;;;26.95;19.95;;;17.10;78.10;;;16.14;100.00;95634.97;4995471;28;20038;-67
2023/07/05 03:26:13;;;;;;;14.27;10.40;;;17.10;78.50;;;16.14;100.00;95634.97;5010010;28;20121;-67
2023/07/05 03:28:40;;;;;;;6.05;4.28;;;17.20;78.20;;;16.15;100.00;95628.63;5010688;28;20037;-68
2023/07/05 03:31:11;;;;;;;5.88;3.17;;;17.20;78.20;;;16.16;100.00;95635.56;4994579;28;20509;-67
2023/07/05 03:33:36;;;;;;;;;;;17.20;77.80;;;16.16;100.00;95646.97;4994772;28;24577;-67
2023/07/05 03:36:11;;;;;;;6.22;2.00;;;17.20;77.60;;;16.16;100.00;95643.50;5027133;28;19917;-67
2023/07/05 03:38:37;;;;;;;4.82;2.05;;;17.20;77.60;;;16.17;100.00;95642.47;5010838;28;20492;-67
2023/07/05 03:41:14;;;;;;;5.22;2.03;;;17.20;78.40;;;16.17;100.00;95637.16;5010396;28;20112;-67
2023/07/05 03:43:40;;;;;;;3.38;2.17;;;17.20;78.30;;;16.14;100.00;95632.34;5010081;28;20075;-67
2023/07/05 03:46:09;;;;;;;4.55;2.38;;;17.20;78.20;;;16.17;100.00;95631.84;5010380;28;20041;-67
2023/07/05 03:48:38;;;;;;;4.53;2.28;;;17.20;78.10;;;16.17;100.00;95637.16;5027864;28;20037;-67
2023/07/05 03:51:03;;;;;;;9.25;8.25;;;17.30;78.00;;;16.19;100.00;95645.69;5010741;28;20037;-67
2023/07/05 03:53:29;;;;;;;15.18;13.15;;;17.30;78.10;;;16.22;100.00;95653.19;4996711;28;20048;-68
2023/07/05 03:56:09;;;;;;;11.70;8.73;;;17.20;77.90;;;16.23;100.00;95642.31;5026192;28;20033;-67
2023/07/05 03:58:35;;;;;;;5.00;3.63;;;17.30;77.60;;;16.26;100.00;95649.00;4995357;28;20029;-67
2023/07/05 04:01:15;;;;;;;4.00;2.22;;;17.40;77.70;;;16.29;100.00;95658.34;5009201;28;20090;-67
2023/07/05 04:03:42;;;;;;;5.18;1.98;;;17.30;77.30;;;16.28;100.00;95660.19;5011225;28;20044;-66
2023/07/05 04:06:08;;;;;;;3.03;2.00;;;17.40;77.00;;;16.26;100.00;95662.28;4994781;28;20029;-66
2023/07/05 04:08:33;;;;;;;2.83;2.17;;;17.30;76.80;;;16.27;100.00;95658.59;5012605;28;20421;-67
2023/07/05 04:10:59;;;;;;;3.22;2.00;;;17.30;76.90;;;16.28;100.00;95649.56;5011059;28;20120;-67
2023/07/05 04:13:25;;;;;;;4.00;2.20;;;17.40;77.60;;;16.26;100.00;95640.25;5013362;28;20084;-66
2023/07/05 04:16:06;;;;;;;3.15;2.30;;;17.40;77.40;;;16.26;100.00;95641.03;5012233;28;20099;-67
2023/07/05 04:18:32;;;;;;;3.50;2.35;;;17.40;77.50;;;16.27;100.00;95645.31;4980449;28;20026;-66
2023/07/05 04:20:58;;;;;;;3.00;2.00;;;17.40;77.10;;;16.29;100.00;95651.19;5012158;28;20029;-66
2023/07/05 04:23:24;;;;;;;3.20;2.28;;;17.50;77.60;;;16.30;100.00;95649.38;5011499;28;20041;-66
2023/07/05 04:25:58;;;;;;;3.83;2.22;;;17.50;77.50;;;16.31;100.00;95643.81;4997128;28;20026;-66
2023/07/05 04:28:23;;;;;;;3.35;2.30;;;17.50;77.50;;;16.33;100.00;95647.03;4991971;28;20056;-68
2023/07/05 04:30:49;;;;;;;3.63;2.03;;;17.60;77.60;;;16.33;100.00;95652.34;5011822;28;20397;-66
2023/07/05 04:33:15;;;;;;;6.22;2.72;;;17.60;77.30;;;16.39;100.00;95659.38;4995893;28;20106;-67
2023/07/05 04:35:52;;;;;;;5.65;2.20;;;17.60;76.80;;;16.43;100.00;95657.84;4995033;28;20513;-67
2023/07/05 04:38:18;;;;;;;6.20;2.30;;;17.60;76.80;;;16.45;100.00;95655.75;4998506;28;20412;-67
2023/07/05 04:40:44;;;;;;;3.67;2.25;;;17.70;76.70;;;16.47;100.00;95661.63;5011894;28;20033;-67
2023/07/05 04:43:09;;;;;;;4.13;2.13;;;17.70;76.60;;;16.48;100.00;95665.91;5028081;28;20529;-67
2023/07/05 04:45:35;;;;;;;3.22;2.20;;;17.70;76.70;;;16.48;100.00;95665.91;5008428;28;20367;-67
2023/07/05 04:48:01;;;;;;;2.83;1.90;;;17.60;76.70;;;16.53;100.00;95667.88;5011277;28;20033;-66
2023/07/05 04:50:27;;;;;;;2.97;1.85;;;17.80;76.50;;;16.57;100.00;95668.19;5012247;28;20109;-66
2023/07/05 04:52:53;;;;;;;3.85;2.20;;;17.80;76.50;;;16.60;100.00;95657.09;4998093;28;20032;-67
2023/07/05 04:55:19;;;;;;;4.18;2.15;;;17.80;76.90;;;16.67;100.00;95663.09;4995075;28;20072;-67
2023/07/05 04:57:44;;;;;;;4.22;2.10;;;18.00;76.70;;;16.64;100.00;95656.38;5017058;28;20067;-68
2023/07/05 05:00:11;;;;;;;2.72;2.00;;;18.00;76.10;;;16.76;100.00;95682.94;5029406;28;20054;-66
2023/07/05 05:02:37;;;;;;;3.72;2.28;;;18.10;76.60;;;16.82;100.00;95693.41;5012062;28;20033;-66
2023/07/05 05:05:05;;;;;;;5.90;2.65;;;18.10;76.60;;;16.89;100.00;95698.56;5010723;28;20034;-67
2023/07/05 05:07:30;;;;;;;3.20;2.15;;;18.10;76.40;;;16.93;100.00;95694.38;5027740;28;20480;-66
2023/07/05 05:09:58;;;;;;;3.97;2.17;;;18.30;76.20;;;17.02;100.00;95692.97;5011615;28;20026;-66
2023/07/05 05:12:23;;;;;;;5.95;2.08;;;18.40;75.90;;;17.17;100.00;95715.53;4995644;28;20401;-66
2023/07/05 05:14:49;;;;;;;4.35;2.35;;;18.70;75.90;;;17.29;100.00;95714.44;5011602;28;20029;-66
2023/07/05 05:17:15;;;;;;;5.43;2.20;;;18.80;76.40;;;17.43;100.00;95745.00;5011647;28;20558;-66
2023/07/05 05:19:41;;;;;;;3.55;1.95;;;19.00;76.10;;;17.53;100.00;95784.22;5028757;28;20060;-67
2023/07/05 05:22:08;;;;;;;3.83;2.05;;;19.00;76.10;;;17.60;100.00;95806.16;5011595;28;20543;-68
2023/07/05 05:24:36;;;;;;;4.65;1.98;;;18.90;75.90;;;17.60;100.00;95826.63;5012464;28;20160;-68
2023/07/05 05:27:02;;;;;;;4.68;2.00;;;18.60;76.20;;;17.56;100.00;95820.97;5023414;28;20029;-67
2023/07/05 05:29:28;;;;;;;4.10;2.10;;;18.60;76.60;;;17.52;100.00;95821.69;4995042;28;20374;-68
2023/07/05 05:31:54;;;;;;;3.22;1.88;;;18.60;76.30;;;17.53;100.00;95831.28;4995122;28;20037;-68
2023/07/05 05:34:19;;;;;;;5.28;2.22;;;18.60;76.10;;;17.52;100.00;95830.50;5011476;28;20057;-68
2023/07/05 05:36:45;;;;;;;3.47;1.92;;;18.50;76.00;;;17.49;100.00;95830.97;5013115;28;20025;-67
2023/07/05 05:39:11;;;;;;;3.88;1.77;;;18.50;76.10;;;17.47;100.00;95833.06;5014876;28;20083;-67
2023/07/05 05:41:36;;;;;;;3.45;1.92;;;18.50;76.10;;;17.50;100.00;95837.09;4998308;28;20071;-67
2023/07/05 05:44:02;;;;;;;3.03;2.45;;;18.60;76.00;;;17.53;100.00;95832.09;4998515;28;20057;-67
2023/07/05 05:46:28;;;;;;;3.38;1.90;;;18.70;75.40;;;17.58;100.00;95829.53;5014629;28;20099;-68
2023/07/05 05:48:54;;;;;;;3.50;2.30;;;18.80;75.40;;;17.66;100.00;95831.81;4998457;28;20135;-68
2023/07/05 05:51:20;;;;;;;3.45;1.65;;;19.00;75.50;;;17.73;100.00;95837.00;4998025;28;20071;-67
2023/07/05 05:53:45;;;;;;;2.72;1.90;;;19.10;75.30;;;17.83;100.00;95836.34;5010828;28;20117;-67
2023/07/05 05:56:11;;;;;;;5.32;2.05;;;19.20;75.10;;;17.89;100.00;95822.91;5014693;28;20034;-67
2023/07/05 05:58:37;;;;;;;2.30;1.70;;;19.20;75.10;;;17.96;100.00;95825.41;5013359;28;20111;-69
2023/07/05 06:01:03;;;;;;;3.25;1.60;;;19.30;75.30;;;18.00;100.00;95821.22;5014542;28;20106;-67
2023/07/05 06:03:29;;;;;;;3.85;1.90;;;19.30;75.20;;;18.06;100.00;95823.69;5014116;28;20505;-68
2023/07/05 06:05:55;;;;;;;3.50;1.70;;;19.40;75.20;;;18.12;100.00;95829.94;5000924;28;20052;-68
2023/07/05 06:08:21;;;;;;;4.93;1.98;;;19.40;75.50;;;18.17;100.00;95824.69;4998054;28;20244;-68
2023/07/05 06:10:54;;;;;;;3.47;2.13;;;19.40;75.60;;;18.20;100.00;95818.06;5014331;28;20061;-67
2023/07/05 06:13:19;;;;;;;5.75;2.00;;;19.50;75.80;;;18.19;100.00;95822.59;5007528;28;20026;-68
2023/07/05 06:15:45;;;;;;;3.38;2.20;;;19.40;75.90;;;18.19;100.00;95825.25;5032018;28;20064;-68
2023/07/05 06:18:11;;;;;;;4.88;1.92;;;19.40;76.10;;;18.15;100.00;95818.00;5014134;28;20049;-68
2023/07/05 06:20:36;;;;;;;4.55;2.25;;;19.40;76.50;;;18.12;100.00;95821.94;5014511;28;20441;-68
2023/07/05 06:23:03;;;;;;;3.50;1.90;;;19.20;77.10;;;18.06;100.00;95807.72;5031485;28;20521;-68
2023/07/05 06:25:30;;;;;;;5.30;2.28;;;19.20;77.50;;;17.99;100.00;95803.63;5013751;28;20116;-68
2023/07/05 06:27:56;;;;;;;3.75;2.20;;;19.20;77.50;;;18.00;100.00;95806.06;5024670;28;20132;-68
2023/07/05 06:30:22;;;;;;;3.45;2.28;;;19.20;77.80;;;17.96;100.00;95809.44;5013988;28;20505;-67
2023/07/05 06:32:47;;;;;;;5.57;2.30;;;19.10;78.10;;;17.93;100.00;95794.78;5013953;28;20056;-68
2023/07/05 06:35:13;;;;;;;3.88;2.35;;;19.20;78.60;;;17.89;100.00;95798.16;5031566;28;20025;-69
2023/07/05 06:37:39;;;;;;;4.43;2.42;;;19.10;78.40;;;17.87;100.00;95800.22;4997248;28;20403;-69
2023/07/05 06:40:06;;;;;;;3.95;2.30;;;19.10;78.80;;;17.88;100.00;95804.50;4997460;28;20025;-69
2023/07/05 06:42:31;;;;;;;4.20;2.17;;;19.10;78.90;;;17.86;100.00;95804.75;5030379;28;20029;-68
2023/07/05 06:44:57;;;;;;;3.88;2.53;;;19.20;78.70;;;17.84;100.00;95800.72;5013651;28;20132;-69
2023/07/05 06:47:23;;;;;;;4.38;2.60;;;19.10;78.80;;;17.85;100.00;95797.00;5012613;28;20060;-67
2023/07/05 06:49:48;;;;;;;3.97;1.98;;;19.10;78.80;;;17.83;100.00;95799.09;5031274;28;20029;-67
2023/07/05 06:52:15;;;;;;;3.10;1.90;;;19.10;78.60;;;17.84;100.00;95812.16;5013652;28;20029;-68
2023/07/05 06:54:41;;;;;;;6.00;2.10;;;19.20;78.80;;;17.85;100.00;95823.63;5014076;28;20563;-69
2023/07/05 06:57:07;;;;;;;4.18;2.35;;;19.30;78.90;;;17.87;100.00;95832.97;5013482;28;20091;-68
2023/07/05 06:59:33;;;;;;;4.20;2.33;;;19.20;78.90;;;17.87;100.00;95834.81;5030828;28;20052;-68
2023/07/05 07:01:59;;;;;;;4.60;2.38;;;19.20;78.80;;;17.85;100.00;95836.91;4997201;28;20068;-66
2023/07/05 07:04:24;;;;;;;3.92;2.42;;;19.20;78.80;;;17.84;100.00;95833.47;5013360;28;20111;-67
2023/07/05 07:06:50;;;;;;;6.32;2.38;;;19.30;78.70;;;17.84;100.00;95833.47;5013428;28;20029;-67
2023/07/05 07:09:16;;;;;;;3.20;2.22;;;19.30;78.50;;;17.87;100.00;95824.19;5013349;28;20061;-68
2023/07/05 07:11:44;;;;;;;4.35;2.10;;;19.30;78.20;;;17.88;100.00;95836.44;4996707;28;20205;-67
2023/07/05 07:14:10;;;;;;;2.85;2.10;;;19.30;78.30;;;17.93;100.00;95831.22;5012558;28;20041;-68
2023/07/05 07:16:36;;;;;;;3.92;2.20;;;19.40;78.50;;;18.00;100.00;95837.19;5013394;28;20499;-67
2023/07/05 07:19:02;;;;;;;4.30;2.47;;;19.50;78.20;;;18.03;100.00;95852.66;5013341;28;20470;-67
2023/07/05 07:21:27;;;;;;;3.88;2.42;;;19.50;77.80;;;18.07;100.00;95859.13;5012755;28;20566;-67
2023/07/05 07:23:53;;;;;;;5.13;2.42;;;19.50;77.90;;;18.12;100.00;95861.88;5012880;28;20509;-67
2023/07/05 07:26:21;;;;;;;5.05;2.40;;;19.60;77.80;;;18.19;100.00;95856.38;4994900;28;20053;-67
2023/07/05 07:28:51;;;;;;;3.70;2.35;;;19.70;77.60;;;18.27;100.00;95859.44;5027313;28;20025;-67
2023/07/05 07:31:28;;;;;;;4.05;2.15;;;19.90;77.60;;;18.39;100.00;95866.53;4997092;28;20029;-66
2023/07/05 07:33:54;;;;;;;4.03;2.15;;;20.00;77.40;;;18.49;100.00;95866.69;4996354;28;20080;-67
2023/07/05 07:36:24;;;;;;;4.22;2.08;;;20.20;76.90;;;18.59;100.00;95866.84;4982727;28;20500;-68
2023/07/05 07:38:50;;;;;;;3.78;2.35;;;20.20;76.10;;;18.65;100.00;95866.69;5012526;28;20032;-66
2023/07/05 07:41:19;;;;;;;6.13;2.60;;;20.30;75.70;;;18.78;100.00;95862.06;5012943;28;20144;-68
2023/07/05 07:43:48;;;;;;;3.15;2.13;;;20.50;75.80;;;18.87;100.00;95872.06;4980115;28;20523;-68
2023/07/05 07:46:17;;;;;;;3.42;2.15;;;20.60;75.60;;;18.95;100.00;95876.94;4995772;28;20030;-69
2023/07/05 07:48:46;;;;;;;6.35;2.72;;;20.60;75.90;;;18.94;100.00;95870.00;5013452;28;20432;-67
2023/07/05 07:51:11;;;;;;;4.45;2.28;;;20.40;75.80;;;18.94;100.00;95867.34;4999313;28;20026;-67
2023/07/05 07:53:37;;;;;;;4.15;2.50;;;20.40;75.40;;;18.98;100.00;95857.00;5029957;28;20092;-67
2023/07/05 07:56:14;;;;;;;6.93;2.80;;;20.50;75.30;;;19.08;100.00;95851.81;4998962;28;20287;-67
2023/07/05 07:58:40;;;;;;;12.38;2.55;;;20.70;74.20;;;19.20;100.00;95841.00;5013085;28;20117;-68
2023/07/05 08:01:17;;;;;;;5.15;2.38;;;21.00;73.10;;;19.39;100.00;95820.94;5015001;28;20055;-68
2023/07/05 08:03:42;;;;;;;4.10;1.80;;;21.60;72.40;;;19.62;100.00;95821.72;4978940;28;20112;-66
2023/07/05 08:06:09;;;;;;;4.63;2.22;;;21.80;70.70;;;19.83;100.00;95823.53;4998776;28;20065;-67
2023/07/05 08:08:35;;;;;;;6.40;2.40;;;22.10;70.30;;;20.06;100.00;95817.03;5016638;28;20378;-67
2023/07/05 08:11:03;;;;;;;6.70;2.30;;;22.40;71.10;;;20.29;100.00;95822.03;5031607;28;20528;-69
2023/07/05 08:13:30;;;;;;;5.03;2.05;;;22.70;70.70;;;20.55;100.00;95825.69;5009138;28;20068;-68
2023/07/05 08:15:58;;;;;;;5.63;2.13;;;23.00;69.60;;;20.74;100.00;95824.19;4996434;28;20035;-67
2023/07/05 08:18:24;;;;;;;3.03;1.83;;;22.90;68.50;;;20.89;100.00;95817.34;4989617;28;20112;-67
2023/07/05 08:20:49;;;;;;;6.13;2.10;;;23.00;68.80;;;20.97;100.00;95811.47;5030071;28;20034;-66
2023/07/05 08:23:15;;;;;;;3.13;1.98;;;23.10;69.30;;;21.04;100.00;95807.47;5012261;28;20049;-67
2023/07/05 08:25:42;;;;;;;3.45;2.00;;;22.80;69.00;;;21.05;100.00;95813.66;5029343;28;20053;-68
2023/07/05 08:28:11;;;;;;;3.70;2.35;;;22.70;69.10;;;21.00;100.00;95813.63;5012177;28;20037;-67
2023/07/05 08:30:39;;;;;;;6.25;2.60;;;22.60;69.80;;;21.02;100.00;95819.50;5007825;28;20122;-67
2023/07/05 08:33:06;;;;;;;4.32;2.28;;;22.70;70.30;;;21.02;100.00;95814.16;4996011;28;20434;-68
2023/07/05 08:35:32;;;;;;;8.02;2.20;;;22.70;71.00;;;21.05;100.00;95829.72;5011780;28;20108;-68
2023/07/05 08:37:57;;;;;;;4.35;2.30;;;22.80;69.30;;;21.07;100.00;95822.22;4995687;28;20040;-69
2023/07/05 08:40:26;;;;;;;4.55;2.20;;;22.80;68.50;;;21.12;100.00;95814.22;5029576;28;20030;-67
2023/07/05 08:43:06;;;;;;;3.78;2.63;;;22.90;68.50;;;21.17;99.07;95810.75;5012423;28;20117;-68
2023/07/05 08:45:42;;;;;;;4.63;2.25;;;23.00;68.30;;;21.26;100.00;95815.34;4995519;28;20029;-66
2023/07/05 08:48:08;;;;;;;5.13;2.50;;;23.20;68.60;;;21.32;100.00;95810.84;4996708;28;20521;-68
2023/07/05 08:50:40;;;;;;;4.10;2.40;;;23.30;69.30;;;21.37;99.09;95806.31;4995730;28;20033;-68
2023/07/05 08:53:19;;;;;;;7.65;2.65;;;23.20;66.60;;;21.43;96.70;95799.06;5012649;28;20026;-69
2023/07/05 08:55:52;;;;;;;4.95;2.08;;;23.40;66.70;;;21.58;96.75;95801.00;4996544;28;20025;-69
2023/07/05 08:58:22;;;;;;;5.10;1.95;;;23.60;66.30;;;21.69;94.61;95794.56;5029458;28;20021;-69
2023/07/05 09:01:04;;;;;;;3.00;2.13;;;23.90;64.30;;;21.89;92.60;95799.13;5011682;28;20025;-67
2023/07/05 09:03:30;;;;;;;4.35;2.30;;;24.10;63.90;;;22.06;92.82;95796.22;4996526;28;20057;-67
2023/07/05 09:06:13;;;;;;;2.92;1.77;;;24.50;61.60;;;22.35;88.13;95794.59;5029376;28;20120;-68
2023/07/05 09:09:04;;;;;;;3.60;2.08;;;24.80;60.60;;;22.66;85.27;95783.81;5012200;28;20030;-69
2023/07/05 09:12:14;;;;;;;2.30;1.65;;;25.00;59.60;;;22.87;84.90;95780.00;5014291;28;20386;-67
2023/07/05 09:15:13;;;;;;;4.45;2.17;;;25.00;61.00;;;22.92;82.85;95771.94;5020877;28;20504;-68
2023/07/05 09:18:13;;;;;;;3.88;2.22;;;24.80;59.90;;;22.93;81.36;95784.28;5010062;28;20034;-68
2023/07/05 09:21:12;;;;;;;3.65;2.40;;;24.80;59.40;;;23.04;83.17;95785.81;4996403;28;20034;-67
2023/07/05 09:23:51;;;;;;;3.38;2.00;;;25.00;60.70;;;23.05;79.68;95782.06;4996503;28;20437;-69
2023/07/05 09:26:23;;;;;;;3.08;2.20;;;24.80;58.20;;;23.04;77.01;95775.09;4998471;28;20033;-68
2023/07/05 09:29:20;;;;;;;3.15;1.80;;;24.80;57.80;;;23.00;77.49;95779.41;4996626;28;20044;-68
2023/07/05 09:31:46;;;;;;;3.25;2.17;;;24.70;58.40;;;22.96;79.37;95786.41;5013877;28;20049;-68
2023/07/05 09:34:38;;;;;;;3.85;2.13;;;24.60;58.40;;;23.02;74.85;95777.25;4982224;28;20473;-68
2023/07/05 09:37:24;;;;;;;4.75;2.30;;;25.20;56.10;;;23.34;77.81;95789.44;4998663;28;20460;-68
2023/07/05 09:40:22;;;;;;;3.05;2.00;;;26.10;56.30;;;23.71;75.22;95780.91;4994838;28;20493;-68
2023/07/05 09:43:04;;;;;;;4.82;2.17;;;26.60;54.20;;;24.18;73.75;95777.56;5015262;28;20033;-68
2023/07/05 09:45:30;;;;;;;3.22;2.13;;;27.30;52.40;;;24.66;76.01;95793.78;5023431;28;20501;-67
2023/07/05 09:48:04;;;;;;;4.25;2.10;;;28.30;52.50;;;25.07;70.73;95777.22;5014655;28;20091;-67
2023/07/05 09:50:30;;;;;;;4.05;2.05;;;28.20;49.50;;;25.49;71.56;95771.00;4988474;28;20448;-67
2023/07/05 09:53:33;;;;;;;2.47;1.73;;;29.00;48.20;;;26.04;70.39;95772.06;4998712;28;20034;-67
2023/07/05 09:56:12;;;;;;;2.50;1.92;;;29.60;49.90;;;26.41;68.26;95762.28;5018057;28;20037;-67
2023/07/05 09:58:39;;;;;;;3.67;1.83;;;30.00;48.20;;;26.66;67.18;95767.19;4977299;28;20091;-71
2023/07/05 10:01:09;;;;;;;2.28;1.90;;;29.60;45.70;;;26.74;66.22;95755.72;5014688;28;20493;-68
2023/07/05 10:03:35;;;;;;;;;;;29.70;45.90;;;27.04;62.25;95750.84;5014321;28;20045;-66
2023/07/05 10:06:07;;;;;;;3.20;2.20;;;30.60;44.60;;;27.40;65.98;95767.09;5003826;28;19914;-69
2023/07/05 10:08:42;;;;;;;4.28;2.20;;;31.20;41.80;;;27.66;58.74;95726.81;5013573;28;20030;-68
2023/07/05 10:11:42;;;;;;;3.33;2.08;;;31.00;41.70;;;27.84;59.28;95738.53;4999394;28;20029;-68
2023/07/05 10:14:12;;;;;;;6.60;2.38;;;31.20;43.20;;;27.94;59.82;95744.50;5015787;28;20069;-68
2023/07/05 10:16:57;;;;;;;3.88;2.15;;;30.70;43.00;;;28.11;57.75;95732.19;4998362;28;20056;-67
2023/07/05 10:19:32;;;;;;;3.45;2.28;;;31.30;42.70;;;28.38;56.21;95732.06;4994963;28;20033;-67
2023/07/05 10:22:26;;;;;;;4.07;2.13;;;31.50;41.20;;;28.51;55.15;95731.13;4997496;28;20036;-67
2023/07/05 10:24:53;;;;;;;3.63;2.10;;;31.40;41.90;;;28.60;57.42;95737.41;4995634;28;20037;-68
2023/07/05 10:27:25;;;;;;;2.72;1.83;;;31.10;41.00;;;28.57;52.05;95710.97;4997243;28;20112;-68